sensor_id;sensor_type;location;lat;lon;timestamp;temperature;humidity
26254;DHT22;53339;51.378;0.094;2023-04-24T00:00:05;8.50;90.10
26254;DHT22;53339;51.378;0.094;2023-04-24T00:02:33;8.60;90.10
26254;DHT22;53339;51.378;0.094;2023-04-24T00:05:02;8.60;90.00
26254;DHT22;53339;51.378;0.094;2023-04-24T00:07:33;8.60;90.00
26254;DHT22;53339;51.378;0.094;2023-04-24T00:10:04;8.60;90.00
26254;DHT22;53339;51.378;0.094;2023-04-24T00:12:35;8.50;89.90
26254;DHT22;53339;51.378;0.094;2023-04-24T00:15:03;8.50;89.90
26254;DHT22;53339;51.378;0.094;2023-04-24T00:17:31;8.50;89.80
26254;DHT22;53339;51.378;0.094;2023-04-24T00:19:59;8.50;89.80
26254;DHT22;53339;51.378;0.094;2023-04-24T00:22:31;8.50;89.80
26254;DHT22;53339;51.378;0.094;2023-04-24T00:24:59;8.40;89.70
26254;DHT22;53339;51.378;0.094;2023-04-24T00:27:32;8.40;89.70
26254;DHT22;53339;51.378;0.094;2023-04-24T00:30:00;8.40;89.80
26254;DHT22;53339;51.378;0.094;2023-04-24T00:32:28;8.40;89.70
26254;DHT22;53339;51.378;0.094;2023-04-24T00:34:56;8.40;89.70
26254;DHT22;53339;51.378;0.094;2023-04-24T00:37:23;8.40;89.80
26254;DHT22;53339;51.378;0.094;2023-04-24T00:39:51;8.40;89.90
26254;DHT22;53339;51.378;0.094;2023-04-24T00:42:19;8.40;89.90
26254;DHT22;53339;51.378;0.094;2023-04-24T00:44:47;8.30;89.60
26254;DHT22;53339;51.378;0.094;2023-04-24T00:47:16;8.40;89.80
26254;DHT22;53339;51.378;0.094;2023-04-24T00:49:44;8.40;89.90
26254;DHT22;53339;51.378;0.094;2023-04-24T00:52:11;8.40;89.90
26254;DHT22;53339;51.378;0.094;2023-04-24T00:54:39;8.40;89.80
26254;DHT22;53339;51.378;0.094;2023-04-24T00:57:07;8.40;89.80
26254;DHT22;53339;51.378;0.094;2023-04-24T00:59:35;8.40;89.80
26254;DHT22;53339;51.378;0.094;2023-04-24T01:02:03;8.40;89.80
26254;DHT22;53339;51.378;0.094;2023-04-24T01:04:31;8.40;89.80
26254;DHT22;53339;51.378;0.094;2023-04-24T01:06:59;8.40;89.70
26254;DHT22;53339;51.378;0.094;2023-04-24T01:09:28;8.40;89.80
26254;DHT22;53339;51.378;0.094;2023-04-24T01:11:58;8.40;89.70
26254;DHT22;53339;51.378;0.094;2023-04-24T01:14:26;8.30;89.50
26254;DHT22;53339;51.378;0.094;2023-04-24T01:16:54;8.30;89.60
26254;DHT22;53339;51.378;0.094;2023-04-24T01:19:24;8.40;89.70
26254;DHT22;53339;51.378;0.094;2023-04-24T01:21:53;8.30;89.70
26254;DHT22;53339;51.378;0.094;2023-04-24T01:24:22;8.30;89.60
26254;DHT22;53339;51.378;0.094;2023-04-24T01:26:49;8.30;89.60
26254;DHT22;53339;51.378;0.094;2023-04-24T01:29:19;8.30;89.70
26254;DHT22;53339;51.378;0.094;2023-04-24T01:31:47;8.30;89.70
26254;DHT22;53339;51.378;0.094;2023-04-24T01:34:14;8.30;89.50
26254;DHT22;53339;51.378;0.094;2023-04-24T01:36:43;8.30;89.50
26254;DHT22;53339;51.378;0.094;2023-04-24T01:39:13;8.30;89.70
26254;DHT22;53339;51.378;0.094;2023-04-24T01:41:41;8.30;89.60
26254;DHT22;53339;51.378;0.094;2023-04-24T01:44:08;8.20;89.40
26254;DHT22;53339;51.378;0.094;2023-04-24T01:46:37;8.20;89.50
26254;DHT22;53339;51.378;0.094;2023-04-24T01:49:05;8.20;89.60
26254;DHT22;53339;51.378;0.094;2023-04-24T01:51:33;8.20;89.70
26254;DHT22;53339;51.378;0.094;2023-04-24T01:54:00;8.20;89.50
26254;DHT22;53339;51.378;0.094;2023-04-24T01:56:33;8.10;89.50
26254;DHT22;53339;51.378;0.094;2023-04-24T01:59:03;8.10;89.60
26254;DHT22;53339;51.378;0.094;2023-04-24T02:01:35;8.10;89.60
26254;DHT22;53339;51.378;0.094;2023-04-24T02:04:07;8.10;89.50
26254;DHT22;53339;51.378;0.094;2023-04-24T02:06:35;8.10;89.60
26254;DHT22;53339;51.378;0.094;2023-04-24T02:09:03;8.10;89.70
26254;DHT22;53339;51.378;0.094;2023-04-24T02:11:31;8.10;89.80
26254;DHT22;53339;51.378;0.094;2023-04-24T02:13:58;8.10;89.60
26254;DHT22;53339;51.378;0.094;2023-04-24T02:16:26;8.10;89.50
26254;DHT22;53339;51.378;0.094;2023-04-24T02:18:53;8.00;89.60
26254;DHT22;53339;51.378;0.094;2023-04-24T02:21:21;8.00;89.70
26254;DHT22;53339;51.378;0.094;2023-04-24T02:23:49;8.00;89.70
26254;DHT22;53339;51.378;0.094;2023-04-24T02:26:17;7.90;89.70
26254;DHT22;53339;51.378;0.094;2023-04-24T02:28:49;8.00;89.80
26254;DHT22;53339;51.378;0.094;2023-04-24T02:31:16;8.00;89.70
26254;DHT22;53339;51.378;0.094;2023-04-24T02:33:44;7.90;89.50
26254;DHT22;53339;51.378;0.094;2023-04-24T02:36:11;7.80;89.40
26254;DHT22;53339;51.378;0.094;2023-04-24T02:38:40;7.80;89.50
26254;DHT22;53339;51.378;0.094;2023-04-24T02:41:07;7.80;89.70
26254;DHT22;53339;51.378;0.094;2023-04-24T02:43:35;7.80;89.70
26254;DHT22;53339;51.378;0.094;2023-04-24T02:46:03;7.80;89.80
26254;DHT22;53339;51.378;0.094;2023-04-24T02:48:30;7.80;89.90
26254;DHT22;53339;51.378;0.094;2023-04-24T02:50:58;7.90;90.00
26254;DHT22;53339;51.378;0.094;2023-04-24T02:53:26;7.90;89.90
26254;DHT22;53339;51.378;0.094;2023-04-24T02:55:53;7.90;89.90
26254;DHT22;53339;51.378;0.094;2023-04-24T02:58:21;7.90;89.90
26254;DHT22;53339;51.378;0.094;2023-04-24T03:00:53;7.80;89.90
26254;DHT22;53339;51.378;0.094;2023-04-24T03:03:22;7.80;89.90
26254;DHT22;53339;51.378;0.094;2023-04-24T03:05:51;7.90;89.90
26254;DHT22;53339;51.378;0.094;2023-04-24T03:08:20;7.90;90.00
26254;DHT22;53339;51.378;0.094;2023-04-24T03:10:48;7.90;90.10
26254;DHT22;53339;51.378;0.094;2023-04-24T03:13:16;7.90;90.00
26254;DHT22;53339;51.378;0.094;2023-04-24T03:15:44;7.90;89.90
26254;DHT22;53339;51.378;0.094;2023-04-24T03:18:13;7.90;89.90
26254;DHT22;53339;51.378;0.094;2023-04-24T03:20:42;7.90;90.00
26254;DHT22;53339;51.378;0.094;2023-04-24T03:23:09;7.90;90.00
26254;DHT22;53339;51.378;0.094;2023-04-24T03:25:37;8.00;90.00
26254;DHT22;53339;51.378;0.094;2023-04-24T03:28:06;8.00;90.00
26254;DHT22;53339;51.378;0.094;2023-04-24T03:30:48;8.00;90.00
26254;DHT22;53339;51.378;0.094;2023-04-24T03:33:17;8.00;89.90
26254;DHT22;53339;51.378;0.094;2023-04-24T03:35:54;8.00;89.90
26254;DHT22;53339;51.378;0.094;2023-04-24T03:38:22;8.00;89.90
26254;DHT22;53339;51.378;0.094;2023-04-24T03:41:04;8.10;89.90
26254;DHT22;53339;51.378;0.094;2023-04-24T03:43:39;8.10;89.90
26254;DHT22;53339;51.378;0.094;2023-04-24T03:46:07;8.10;89.80
26254;DHT22;53339;51.378;0.094;2023-04-24T03:48:40;8.10;89.80
26254;DHT22;53339;51.378;0.094;2023-04-24T03:51:09;8.10;89.80
26254;DHT22;53339;51.378;0.094;2023-04-24T03:53:40;8.10;89.80
26254;DHT22;53339;51.378;0.094;2023-04-24T03:56:10;8.10;89.70
26254;DHT22;53339;51.378;0.094;2023-04-24T03:58:40;8.10;89.70
26254;DHT22;53339;51.378;0.094;2023-04-24T04:01:09;8.10;89.60
26254;DHT22;53339;51.378;0.094;2023-04-24T04:03:48;8.10;89.60
26254;DHT22;53339;51.378;0.094;2023-04-24T04:06:22;8.10;89.50
26254;DHT22;53339;51.378;0.094;2023-04-24T04:08:51;8.00;89.40
26254;DHT22;53339;51.378;0.094;2023-04-24T04:11:19;8.00;89.40
26254;DHT22;53339;51.378;0.094;2023-04-24T04:13:47;8.00;89.30
26254;DHT22;53339;51.378;0.094;2023-04-24T04:16:18;7.90;89.30
26254;DHT22;53339;51.378;0.094;2023-04-24T04:18:48;7.90;89.30
26254;DHT22;53339;51.378;0.094;2023-04-24T04:21:16;8.00;89.30
26254;DHT22;53339;51.378;0.094;2023-04-24T04:23:44;7.90;89.30
26254;DHT22;53339;51.378;0.094;2023-04-24T04:26:19;7.90;89.20
26254;DHT22;53339;51.378;0.094;2023-04-24T04:28:59;7.90;89.20
26254;DHT22;53339;51.378;0.094;2023-04-24T04:31:29;7.90;89.20
26254;DHT22;53339;51.378;0.094;2023-04-24T04:34:01;7.90;89.20
26254;DHT22;53339;51.378;0.094;2023-04-24T04:36:31;7.90;89.20
26254;DHT22;53339;51.378;0.094;2023-04-24T04:39:08;7.90;89.20
26254;DHT22;53339;51.378;0.094;2023-04-24T04:41:46;7.90;89.00
26254;DHT22;53339;51.378;0.094;2023-04-24T04:44:18;7.80;89.00
26254;DHT22;53339;51.378;0.094;2023-04-24T04:46:46;7.70;89.00
26254;DHT22;53339;51.378;0.094;2023-04-24T04:49:22;7.70;89.10
26254;DHT22;53339;51.378;0.094;2023-04-24T04:51:51;7.60;89.20
26254;DHT22;53339;51.378;0.094;2023-04-24T04:54:23;7.60;89.30
26254;DHT22;53339;51.378;0.094;2023-04-24T04:56:51;7.60;89.40
26254;DHT22;53339;51.378;0.094;2023-04-24T04:59:19;7.60;89.50
26254;DHT22;53339;51.378;0.094;2023-04-24T05:01:50;7.60;89.60
26254;DHT22;53339;51.378;0.094;2023-04-24T05:04:18;7.60;89.70
26254;DHT22;53339;51.378;0.094;2023-04-24T05:06:46;7.50;89.70
26254;DHT22;53339;51.378;0.094;2023-04-24T05:09:15;7.60;89.80
26254;DHT22;53339;51.378;0.094;2023-04-24T05:11:56;7.60;89.80
26254;DHT22;53339;51.378;0.094;2023-04-24T05:14:25;7.60;89.90
26254;DHT22;53339;51.378;0.094;2023-04-24T05:16:53;7.60;89.90
26254;DHT22;53339;51.378;0.094;2023-04-24T05:19:23;7.60;90.00
26254;DHT22;53339;51.378;0.094;2023-04-24T05:21:51;7.60;90.00
26254;DHT22;53339;51.378;0.094;2023-04-24T05:24:18;7.60;90.00
26254;DHT22;53339;51.378;0.094;2023-04-24T05:26:58;7.60;90.10
26254;DHT22;53339;51.378;0.094;2023-04-24T05:29:33;7.60;90.10
26254;DHT22;53339;51.378;0.094;2023-04-24T05:32:03;7.60;90.10
26254;DHT22;53339;51.378;0.094;2023-04-24T05:34:32;7.60;90.20
26254;DHT22;53339;51.378;0.094;2023-04-24T05:37:00;7.60;90.20
26254;DHT22;53339;51.378;0.094;2023-04-24T05:39:29;7.70;90.20
26254;DHT22;53339;51.378;0.094;2023-04-24T05:41:59;7.60;90.20
26254;DHT22;53339;51.378;0.094;2023-04-24T05:44:28;7.70;90.30
26254;DHT22;53339;51.378;0.094;2023-04-24T05:46:56;7.70;90.20
26254;DHT22;53339;51.378;0.094;2023-04-24T05:49:24;7.70;90.30
26254;DHT22;53339;51.378;0.094;2023-04-24T05:51:52;7.70;90.30
26254;DHT22;53339;51.378;0.094;2023-04-24T05:54:20;7.70;90.30
26254;DHT22;53339;51.378;0.094;2023-04-24T05:56:49;7.70;90.30
26254;DHT22;53339;51.378;0.094;2023-04-24T05:59:26;7.80;90.30
26254;DHT22;53339;51.378;0.094;2023-04-24T06:01:54;7.80;90.40
26254;DHT22;53339;51.378;0.094;2023-04-24T06:04:23;7.80;90.30
26254;DHT22;53339;51.378;0.094;2023-04-24T06:06:58;7.80;90.30
26254;DHT22;53339;51.378;0.094;2023-04-24T06:09:26;7.80;90.40
26254;DHT22;53339;51.378;0.094;2023-04-24T06:11:59;7.90;90.40
26254;DHT22;53339;51.378;0.094;2023-04-24T06:14:39;7.90;90.40
26254;DHT22;53339;51.378;0.094;2023-04-24T06:17:18;7.90;90.40
26254;DHT22;53339;51.378;0.094;2023-04-24T06:19:47;7.90;90.40
26254;DHT22;53339;51.378;0.094;2023-04-24T06:22:14;8.00;90.40
26254;DHT22;53339;51.378;0.094;2023-04-24T06:24:43;8.00;90.50
26254;DHT22;53339;51.378;0.094;2023-04-24T06:27:10;8.10;90.50
26254;DHT22;53339;51.378;0.094;2023-04-24T06:29:41;8.10;90.50
26254;DHT22;53339;51.378;0.094;2023-04-24T06:32:11;8.10;90.40
26254;DHT22;53339;51.378;0.094;2023-04-24T06:34:38;8.10;90.40
26254;DHT22;53339;51.378;0.094;2023-04-24T06:37:06;8.10;90.40
26254;DHT22;53339;51.378;0.094;2023-04-24T06:39:34;8.10;90.40
26254;DHT22;53339;51.378;0.094;2023-04-24T06:42:02;8.20;90.50
26254;DHT22;53339;51.378;0.094;2023-04-24T06:44:34;8.20;90.50
26254;DHT22;53339;51.378;0.094;2023-04-24T06:47:08;8.20;90.30
26254;DHT22;53339;51.378;0.094;2023-04-24T06:49:37;8.10;90.00
26254;DHT22;53339;51.378;0.094;2023-04-24T06:52:05;8.00;89.70
26254;DHT22;53339;51.378;0.094;2023-04-24T06:54:33;7.90;89.50
26254;DHT22;53339;51.378;0.094;2023-04-24T06:57:01;7.90;89.50
26254;DHT22;53339;51.378;0.094;2023-04-24T06:59:30;7.90;89.50
26254;DHT22;53339;51.378;0.094;2023-04-24T07:01:57;7.90;89.60
26254;DHT22;53339;51.378;0.094;2023-04-24T07:04:25;8.00;89.70
26254;DHT22;53339;51.378;0.094;2023-04-24T07:06:53;8.00;89.50
26254;DHT22;53339;51.378;0.094;2023-04-24T07:09:26;8.00;89.30
26254;DHT22;53339;51.378;0.094;2023-04-24T07:11:54;8.00;89.10
26254;DHT22;53339;51.378;0.094;2023-04-24T07:14:23;8.00;89.30
26254;DHT22;53339;51.378;0.094;2023-04-24T07:16:51;8.00;89.30
26254;DHT22;53339;51.378;0.094;2023-04-24T07:19:18;8.10;89.30
26254;DHT22;53339;51.378;0.094;2023-04-24T07:21:46;8.10;89.30
26254;DHT22;53339;51.378;0.094;2023-04-24T07:24:13;8.10;89.40
26254;DHT22;53339;51.378;0.094;2023-04-24T07:26:44;8.20;89.00
26254;DHT22;53339;51.378;0.094;2023-04-24T07:29:13;8.20;89.00
26254;DHT22;53339;51.378;0.094;2023-04-24T07:31:41;8.20;89.00
26254;DHT22;53339;51.378;0.094;2023-04-24T07:34:09;8.30;89.00
26254;DHT22;53339;51.378;0.094;2023-04-24T07:36:36;8.30;88.70
26254;DHT22;53339;51.378;0.094;2023-04-24T07:39:05;8.40;88.60
26254;DHT22;53339;51.378;0.094;2023-04-24T07:41:33;8.40;88.30
26254;DHT22;53339;51.378;0.094;2023-04-24T07:44:01;8.50;88.20
26254;DHT22;53339;51.378;0.094;2023-04-24T07:46:30;8.40;88.10
26254;DHT22;53339;51.378;0.094;2023-04-24T07:48:58;8.50;88.00
26254;DHT22;53339;51.378;0.094;2023-04-24T07:51:40;8.50;87.90
26254;DHT22;53339;51.378;0.094;2023-04-24T07:54:07;8.60;87.70
26254;DHT22;53339;51.378;0.094;2023-04-24T07:56:35;8.60;87.80
26254;DHT22;53339;51.378;0.094;2023-04-24T07:59:06;8.60;87.80
26254;DHT22;53339;51.378;0.094;2023-04-24T08:01:33;8.70;87.00
26254;DHT22;53339;51.378;0.094;2023-04-24T08:04:01;8.70;87.00
26254;DHT22;53339;51.378;0.094;2023-04-24T08:06:29;8.80;87.20
26254;DHT22;53339;51.378;0.094;2023-04-24T08:08:58;8.90;87.30
26254;DHT22;53339;51.378;0.094;2023-04-24T08:11:26;9.00;87.10
26254;DHT22;53339;51.378;0.094;2023-04-24T08:13:54;9.10;87.10
26254;DHT22;53339;51.378;0.094;2023-04-24T08:16:22;9.20;87.00
26254;DHT22;53339;51.378;0.094;2023-04-24T08:18:52;9.20;86.60
26254;DHT22;53339;51.378;0.094;2023-04-24T08:21:20;9.20;86.30
26254;DHT22;53339;51.378;0.094;2023-04-24T08:23:48;9.20;85.80
26254;DHT22;53339;51.378;0.094;2023-04-24T08:26:15;9.20;85.60
26254;DHT22;53339;51.378;0.094;2023-04-24T08:28:43;9.30;85.80
26254;DHT22;53339;51.378;0.094;2023-04-24T08:31:11;9.40;85.50
26254;DHT22;53339;51.378;0.094;2023-04-24T08:33:39;9.40;85.50
26254;DHT22;53339;51.378;0.094;2023-04-24T08:36:08;9.50;84.90
26254;DHT22;53339;51.378;0.094;2023-04-24T08:38:35;9.60;85.50
26254;DHT22;53339;51.378;0.094;2023-04-24T08:41:03;9.60;85.30
26254;DHT22;53339;51.378;0.094;2023-04-24T08:43:34;9.70;85.30
26254;DHT22;53339;51.378;0.094;2023-04-24T08:46:04;9.70;84.70
26254;DHT22;53339;51.378;0.094;2023-04-24T08:48:36;9.70;84.20
26254;DHT22;53339;51.378;0.094;2023-04-24T08:51:08;9.90;84.00
26254;DHT22;53339;51.378;0.094;2023-04-24T08:53:36;10.00;84.10
26254;DHT22;53339;51.378;0.094;2023-04-24T08:56:04;10.00;83.30
26254;DHT22;53339;51.378;0.094;2023-04-24T08:58:33;10.00;81.90
26254;DHT22;53339;51.378;0.094;2023-04-24T09:01:03;10.00;81.60
26254;DHT22;53339;51.378;0.094;2023-04-24T09:03:33;10.00;81.80
26254;DHT22;53339;51.378;0.094;2023-04-24T09:06:02;10.10;82.70
26254;DHT22;53339;51.378;0.094;2023-04-24T09:08:33;10.20;83.00
26254;DHT22;53339;51.378;0.094;2023-04-24T09:11:01;10.20;82.10
26254;DHT22;53339;51.378;0.094;2023-04-24T09:13:32;10.30;81.00
26254;DHT22;53339;51.378;0.094;2023-04-24T09:16:00;10.50;80.60
26254;DHT22;53339;51.378;0.094;2023-04-24T09:18:28;10.70;80.60
26254;DHT22;53339;51.378;0.094;2023-04-24T09:21:03;10.90;77.70
26254;DHT22;53339;51.378;0.094;2023-04-24T09:23:32;11.10;78.60
26254;DHT22;53339;51.378;0.094;2023-04-24T09:26:02;11.20;78.10
26254;DHT22;53339;51.378;0.094;2023-04-24T09:28:32;11.30;78.20
26254;DHT22;53339;51.378;0.094;2023-04-24T09:31:12;11.40;78.40
26254;DHT22;53339;51.378;0.094;2023-04-24T09:34:00;11.50;78.70
26254;DHT22;53339;51.378;0.094;2023-04-24T09:36:34;11.50;79.20
26254;DHT22;53339;51.378;0.094;2023-04-24T09:39:10;11.50;77.10
26254;DHT22;53339;51.378;0.094;2023-04-24T09:41:53;11.50;75.70
26254;DHT22;53339;51.378;0.094;2023-04-24T09:44:24;11.40;78.30
26254;DHT22;53339;51.378;0.094;2023-04-24T09:46:58;11.40;78.60
26254;DHT22;53339;51.378;0.094;2023-04-24T09:49:29;11.40;79.00
26254;DHT22;53339;51.378;0.094;2023-04-24T09:52:16;11.60;76.60
26254;DHT22;53339;51.378;0.094;2023-04-24T09:54:53;11.80;77.60
26254;DHT22;53339;51.378;0.094;2023-04-24T09:57:22;12.10;78.40
26254;DHT22;53339;51.378;0.094;2023-04-24T09:59:53;12.20;72.70
26254;DHT22;53339;51.378;0.094;2023-04-24T10:02:20;12.20;74.40
26254;DHT22;53339;51.378;0.094;2023-04-24T10:04:55;12.10;72.20
26254;DHT22;53339;51.378;0.094;2023-04-24T10:07:26;12.10;73.80
26254;DHT22;53339;51.378;0.094;2023-04-24T10:09:54;12.10;71.60
26254;DHT22;53339;51.378;0.094;2023-04-24T10:12:22;12.00;73.00
26254;DHT22;53339;51.378;0.094;2023-04-24T10:14:51;12.00;73.90
26254;DHT22;53339;51.378;0.094;2023-04-24T10:17:22;12.00;74.90
26254;DHT22;53339;51.378;0.094;2023-04-24T10:19:51;12.00;72.70
26254;DHT22;53339;51.378;0.094;2023-04-24T10:22:20;11.90;71.10
26254;DHT22;53339;51.378;0.094;2023-04-24T10:24:49;11.70;70.20
26254;DHT22;53339;51.378;0.094;2023-04-24T10:27:17;11.70;71.20
26254;DHT22;53339;51.378;0.094;2023-04-24T10:29:49;11.60;70.80
26254;DHT22;53339;51.378;0.094;2023-04-24T10:32:17;11.60;71.40
26254;DHT22;53339;51.378;0.094;2023-04-24T10:34:45;11.50;69.80
26254;DHT22;53339;51.378;0.094;2023-04-24T10:37:12;11.50;69.80
26254;DHT22;53339;51.378;0.094;2023-04-24T10:39:40;11.40;71.10
26254;DHT22;53339;51.378;0.094;2023-04-24T10:42:15;11.50;71.50
26254;DHT22;53339;51.378;0.094;2023-04-24T10:44:43;11.50;71.10
26254;DHT22;53339;51.378;0.094;2023-04-24T10:47:14;11.50;70.40
26254;DHT22;53339;51.378;0.094;2023-04-24T10:49:42;11.50;71.80
26254;DHT22;53339;51.378;0.094;2023-04-24T10:52:10;11.50;71.10
26254;DHT22;53339;51.378;0.094;2023-04-24T10:54:42;11.60;72.00
26254;DHT22;53339;51.378;0.094;2023-04-24T11:00:15;11.70;70.90
26254;DHT22;53339;51.378;0.094;2023-04-24T11:02:46;11.70;71.20
26254;DHT22;53339;51.378;0.094;2023-04-24T11:05:19;11.70;72.40
26254;DHT22;53339;51.378;0.094;2023-04-24T11:08:13;11.80;73.50
26254;DHT22;53339;51.378;0.094;2023-04-24T11:10:44;12.00;74.70
26254;DHT22;53339;51.378;0.094;2023-04-24T11:13:21;12.20;73.00
26254;DHT22;53339;51.378;0.094;2023-04-24T11:18:59;12.20;73.80
26254;DHT22;53339;51.378;0.094;2023-04-24T11:21:42;12.20;72.60
26254;DHT22;53339;51.378;0.094;2023-04-24T11:27:13;12.20;72.30
26254;DHT22;53339;51.378;0.094;2023-04-24T11:37:45;12.20;74.70
26254;DHT22;53339;51.378;0.094;2023-04-24T11:40:17;12.20;75.00
26254;DHT22;53339;51.378;0.094;2023-04-24T11:42:48;12.30;75.50
26254;DHT22;53339;51.378;0.094;2023-04-24T11:45:24;12.60;75.80
26254;DHT22;53339;51.378;0.094;2023-04-24T11:47:52;12.90;75.80
26254;DHT22;53339;51.378;0.094;2023-04-24T11:50:22;13.20;75.60
26254;DHT22;53339;51.378;0.094;2023-04-24T11:52:51;13.30;75.70
26254;DHT22;53339;51.378;0.094;2023-04-24T11:57:52;13.40;73.10
26254;DHT22;53339;51.378;0.094;2023-04-24T12:00:28;13.30;74.00
26254;DHT22;53339;51.378;0.094;2023-04-24T12:03:14;13.30;74.80
26254;DHT22;53339;51.378;0.094;2023-04-24T12:05:42;13.40;74.50
26254;DHT22;53339;51.378;0.094;2023-04-24T12:08:11;13.40;74.60
26254;DHT22;53339;51.378;0.094;2023-04-24T12:10:39;13.40;74.90
26254;DHT22;53339;51.378;0.094;2023-04-24T12:13:09;13.60;74.60
26254;DHT22;53339;51.378;0.094;2023-04-24T12:15:42;13.70;73.50
26254;DHT22;53339;51.378;0.094;2023-04-24T12:18:12;13.80;72.40
26254;DHT22;53339;51.378;0.094;2023-04-24T12:20:41;14.10;72.80
26254;DHT22;53339;51.378;0.094;2023-04-24T12:23:08;14.40;73.30
26254;DHT22;53339;51.378;0.094;2023-04-24T12:25:38;14.70;73.10
26254;DHT22;53339;51.378;0.094;2023-04-24T12:30:35;15.10;67.10
26254;DHT22;53339;51.378;0.094;2023-04-24T12:33:05;15.10;64.10
26254;DHT22;53339;51.378;0.094;2023-04-24T12:35:33;15.10;62.20
26254;DHT22;53339;51.378;0.094;2023-04-24T12:38:09;15.40;65.50
26254;DHT22;53339;51.378;0.094;2023-04-24T12:40:37;16.00;65.80
26254;DHT22;53339;51.378;0.094;2023-04-24T12:43:19;16.40;66.30
26254;DHT22;53339;51.378;0.094;2023-04-24T12:45:49;16.30;66.90
26254;DHT22;53339;51.378;0.094;2023-04-24T12:48:17;16.00;63.00
26254;DHT22;53339;51.378;0.094;2023-04-24T12:50:44;15.70;66.60
26254;DHT22;53339;51.378;0.094;2023-04-24T12:53:13;15.50;66.10
26254;DHT22;53339;51.378;0.094;2023-04-24T12:55:41;15.20;66.70
26254;DHT22;53339;51.378;0.094;2023-04-24T12:58:10;14.90;65.70
26254;DHT22;53339;51.378;0.094;2023-04-24T13:00:38;14.60;66.90
26254;DHT22;53339;51.378;0.094;2023-04-24T13:03:06;14.60;68.30
26254;DHT22;53339;51.378;0.094;2023-04-24T13:05:33;15.00;68.60
26254;DHT22;53339;51.378;0.094;2023-04-24T13:08:01;15.40;68.40
26254;DHT22;53339;51.378;0.094;2023-04-24T13:10:28;15.70;67.30
26254;DHT22;53339;51.378;0.094;2023-04-24T13:12:56;15.70;67.60
26254;DHT22;53339;51.378;0.094;2023-04-24T13:15:24;15.70;68.40
26254;DHT22;53339;51.378;0.094;2023-04-24T13:17:52;15.60;68.00
26254;DHT22;53339;51.378;0.094;2023-04-24T13:20:19;15.80;68.30
26254;DHT22;53339;51.378;0.094;2023-04-24T13:22:47;16.00;69.30
26254;DHT22;53339;51.378;0.094;2023-04-24T13:25:14;16.10;68.80
26254;DHT22;53339;51.378;0.094;2023-04-24T13:27:44;16.10;68.00
26254;DHT22;53339;51.378;0.094;2023-04-24T13:30:12;16.10;65.80
26254;DHT22;53339;51.378;0.094;2023-04-24T13:32:39;16.40;69.30
26254;DHT22;53339;51.378;0.094;2023-04-24T13:35:07;16.70;67.60
26254;DHT22;53339;51.378;0.094;2023-04-24T13:37:35;17.20;68.00
26254;DHT22;53339;51.378;0.094;2023-04-24T13:40:03;17.90;67.30
26254;DHT22;53339;51.378;0.094;2023-04-24T13:42:33;18.80;63.30
26254;DHT22;53339;51.378;0.094;2023-04-24T13:45:01;19.60;64.20
26254;DHT22;53339;51.378;0.094;2023-04-24T13:47:40;19.60;59.50
26254;DHT22;53339;51.378;0.094;2023-04-24T13:50:09;19.00;62.00
26254;DHT22;53339;51.378;0.094;2023-04-24T13:52:37;18.40;59.90
26254;DHT22;53339;51.378;0.094;2023-04-24T13:55:05;17.80;61.80
26254;DHT22;53339;51.378;0.094;2023-04-24T13:57:33;17.30;61.30
26254;DHT22;53339;51.378;0.094;2023-04-24T14:00:04;16.80;62.40
26254;DHT22;53339;51.378;0.094;2023-04-24T14:02:33;16.60;58.40
26254;DHT22;53339;51.378;0.094;2023-04-24T14:05:01;16.40;62.90
26254;DHT22;53339;51.378;0.094;2023-04-24T14:07:29;16.30;61.90
26254;DHT22;53339;51.378;0.094;2023-04-24T14:09:57;16.30;63.40
26254;DHT22;53339;51.378;0.094;2023-04-24T14:12:25;16.30;63.70
26254;DHT22;53339;51.378;0.094;2023-04-24T14:14:53;16.50;63.50
26254;DHT22;53339;51.378;0.094;2023-04-24T14:17:21;16.60;63.50
26254;DHT22;53339;51.378;0.094;2023-04-24T14:19:48;16.60;63.40
26254;DHT22;53339;51.378;0.094;2023-04-24T14:22:19;16.50;62.90
26254;DHT22;53339;51.378;0.094;2023-04-24T14:24:47;16.30;62.60
26254;DHT22;53339;51.378;0.094;2023-04-24T14:27:15;16.10;63.60
26254;DHT22;53339;51.378;0.094;2023-04-24T14:29:42;15.90;63.60
26254;DHT22;53339;51.378;0.094;2023-04-24T14:32:10;15.90;64.00
26254;DHT22;53339;51.378;0.094;2023-04-24T14:34:37;15.90;64.20
26254;DHT22;53339;51.378;0.094;2023-04-24T14:37:04;15.80;64.70
26254;DHT22;53339;51.378;0.094;2023-04-24T14:39:32;15.70;64.00
26254;DHT22;53339;51.378;0.094;2023-04-24T14:42:00;15.60;63.00
26254;DHT22;53339;51.378;0.094;2023-04-24T14:44:28;15.30;63.90
26254;DHT22;53339;51.378;0.094;2023-04-24T14:46:56;15.10;63.90
26254;DHT22;53339;51.378;0.094;2023-04-24T14:49:23;14.90;64.50
26254;DHT22;53339;51.378;0.094;2023-04-24T14:51:51;14.70;64.60
26254;DHT22;53339;51.378;0.094;2023-04-24T14:54:19;14.50;64.70
26254;DHT22;53339;51.378;0.094;2023-04-24T14:56:50;14.40;65.40
26254;DHT22;53339;51.378;0.094;2023-04-24T14:59:18;14.30;65.00
26254;DHT22;53339;51.378;0.094;2023-04-24T15:01:45;14.20;66.10
26254;DHT22;53339;51.378;0.094;2023-04-24T15:04:13;14.20;65.90
26254;DHT22;53339;51.378;0.094;2023-04-24T15:06:41;14.10;65.90
26254;DHT22;53339;51.378;0.094;2023-04-24T15:09:09;14.00;64.00
26254;DHT22;53339;51.378;0.094;2023-04-24T15:11:43;13.80;64.50
26254;DHT22;53339;51.378;0.094;2023-04-24T15:14:11;13.70;65.60
26254;DHT22;53339;51.378;0.094;2023-04-24T15:16:38;13.60;66.30
26254;DHT22;53339;51.378;0.094;2023-04-24T15:19:06;13.40;66.70
26254;DHT22;53339;51.378;0.094;2023-04-24T15:21:35;13.30;67.10
26254;DHT22;53339;51.378;0.094;2023-04-24T15:24:04;13.30;67.50
26254;DHT22;53339;51.378;0.094;2023-04-24T15:26:32;13.20;66.90
26254;DHT22;53339;51.378;0.094;2023-04-24T15:28:59;12.70;66.70
26254;DHT22;53339;51.378;0.094;2023-04-24T15:31:27;12.10;68.20
26254;DHT22;53339;51.378;0.094;2023-04-24T15:33:54;11.30;71.20
26254;DHT22;53339;51.378;0.094;2023-04-24T15:36:22;10.30;73.90
26254;DHT22;53339;51.378;0.094;2023-04-24T15:38:50;9.50;76.80
26254;DHT22;53339;51.378;0.094;2023-04-24T15:41:20;9.00;79.10
26254;DHT22;53339;51.378;0.094;2023-04-24T15:43:48;8.70;80.20
26254;DHT22;53339;51.378;0.094;2023-04-24T15:46:16;8.30;80.70
26254;DHT22;53339;51.378;0.094;2023-04-24T15:48:43;8.10;81.60
26254;DHT22;53339;51.378;0.094;2023-04-24T15:51:12;7.90;82.00
26254;DHT22;53339;51.378;0.094;2023-04-24T15:53:39;7.70;82.60
26254;DHT22;53339;51.378;0.094;2023-04-24T15:56:07;7.60;83.10
26254;DHT22;53339;51.378;0.094;2023-04-24T15:58:35;7.60;83.40
26254;DHT22;53339;51.378;0.094;2023-04-24T16:01:03;7.60;83.90
26254;DHT22;53339;51.378;0.094;2023-04-24T16:03:31;7.60;84.40
26254;DHT22;53339;51.378;0.094;2023-04-24T16:05:59;7.60;84.70
26254;DHT22;53339;51.378;0.094;2023-04-24T16:08:29;7.70;84.90
26254;DHT22;53339;51.378;0.094;2023-04-24T16:10:57;7.70;85.20
26254;DHT22;53339;51.378;0.094;2023-04-24T16:13:24;7.80;85.50
26254;DHT22;53339;51.378;0.094;2023-04-24T16:15:52;7.80;85.80